Terminal Aerodrome Forecast
Issued by NWS Quad Cities IA IL

Home | Current Version | Previous Version | Text Only | Print | Product List | Glossary On
Versions: 1 2 3 4 5 6 7 8 9 10 11 12 13 14 15 16 17
523
FTUS43 KDVN 031730
TAFMLI
TAF
KMLI 031730Z 0318/0418 28013G20KT P6SM BKN060
     FM040000 25008KT P6SM BKN080
     FM040300 24009KT P6SM VCSH BKN060
      TEMPO 0404/0406 5SM -SHRA BKN040
     FM040700 30009KT P6SM BKN100
     FM041000 33011KT P6SM SKC=

USA.gov is the U.S. government's official web portal to all federal, state and local government web resources and services.